Terminal Aerodrome Forecast
Issued by NWS

Home | Current Version | Previous Version | Graphics & Text | Print | Product List | Glossary On
Versions: 1 2 3 4 5 6 7 8 9 10 11 12 13 14
149
FTUS41 KCLE 021406 AAA
TAFFDY
TAF AMD
KFDY 021406Z 0214/0312 25015KT P6SM SCT025 OVC040
      TEMPO 0214/0218 BKN025
     FM022200 27010KT P6SM SCT025 OVC040=

USA.gov is the U.S. government's official web portal to all federal, state and local government web resources and services.